Terminal Aerodrome Forecast (TAF)

TAF

Updated on: Tue 23 Jul 2024 at 04:09:54PM VUT Local time - UTC time: 2024-07-23 05:09:54Z


TAF NVSC 230500Z 2306/2406 12005KT 9999 SCT020 BKN040 PROB40 INTER 2306/2312 8000 SHRA BKN018 OVC038

TAF NVSG 230500Z 2306/2406 12010KT 9999 SCT020 BKN040 PROB40 INTER 2306/2312 8000 SHRA BKN018 OVC038

TAF NVSS 230500Z 2306/2406 13010KT 9999 SCT020 BKN040 INTER 2306/2312 8000 SHRA FEW010 BKN018 OVC038

TAF NVSP 230500Z 2306/2406 11008KT 9999 SCT020 BKN040 INTER 2306/2312 7000 SHRA FEW010 BKN018 OVC038

TAF NVSL 230500Z 2306/2406 121010KT 9999 SCT020 BKN040 INTER 2306/2312 7000 SHRA FEW010 BKN018 OVC038

TAF NVVV 230500Z 2306/2406 11011KT 9999 BKN018 OVC100 INTER 2306/2312 6000 RA SCT008 BKN016 OVC090

TAF NVVW 230500Z 2306/2406 13010KT 9999 BKN018 OVC100 INTER 2306/2312 6000 RA SCT008 BKN016 OVC090

TAF NVVA 230500Z 2306/2406 10010KT 9999 BKN018 OVC100 INTER 2306/2312 6000 RA SCT008 BKN016 OVC090